sensor_id;sensor_type;location;lat;lon;timestamp;temperature;humidity
14053;DHT22;7101;51.600;7.310;2023-07-13T00:01:31;17.10;99.90
14053;DHT22;7101;51.600;7.310;2023-07-13T00:03:59;17.20;99.90
14053;DHT22;7101;51.600;7.310;2023-07-13T00:06:26;17.20;99.90
14053;DHT22;7101;51.600;7.310;2023-07-13T00:08:55;17.30;99.90
14053;DHT22;7101;51.600;7.310;2023-07-13T00:11:22;17.40;99.90
14053;DHT22;7101;51.600;7.310;2023-07-13T00:13:50;17.40;99.90
14053;DHT22;7101;51.600;7.310;2023-07-13T00:16:17;17.50;99.90
14053;DHT22;7101;51.600;7.310;2023-07-13T00:18:47;17.50;99.90
14053;DHT22;7101;51.600;7.310;2023-07-13T00:21:14;17.40;99.90
14053;DHT22;7101;51.600;7.310;2023-07-13T00:23:42;17.20;99.90
14053;DHT22;7101;51.600;7.310;2023-07-13T00:26:10;17.10;99.90
14053;DHT22;7101;51.600;7.310;2023-07-13T00:28:38;17.00;99.90
14053;DHT22;7101;51.600;7.310;2023-07-13T00:31:05;16.90;99.90
14053;DHT22;7101;51.600;7.310;2023-07-13T00:33:32;16.80;99.90
14053;DHT22;7101;51.600;7.310;2023-07-13T00:36:00;16.80;99.90
14053;DHT22;7101;51.600;7.310;2023-07-13T00:38:28;16.70;99.90
14053;DHT22;7101;51.600;7.310;2023-07-13T00:40:55;16.60;99.90
14053;DHT22;7101;51.600;7.310;2023-07-13T00:43:26;16.40;99.90
14053;DHT22;7101;51.600;7.310;2023-07-13T00:46:14;16.30;99.90
14053;DHT22;7101;51.600;7.310;2023-07-13T00:48:43;16.20;99.90
14053;DHT22;7101;51.600;7.310;2023-07-13T00:51:12;16.00;99.90
14053;DHT22;7101;51.600;7.310;2023-07-13T00:53:40;15.90;99.90
14053;DHT22;7101;51.600;7.310;2023-07-13T00:56:07;15.80;99.90
14053;DHT22;7101;51.600;7.310;2023-07-13T00:58:35;15.70;99.90
14053;DHT22;7101;51.600;7.310;2023-07-13T01:01:02;15.70;99.90
14053;DHT22;7101;51.600;7.310;2023-07-13T01:03:29;15.80;99.90
14053;DHT22;7101;51.600;7.310;2023-07-13T01:05:56;15.80;99.90
14053;DHT22;7101;51.600;7.310;2023-07-13T01:08:24;15.80;99.90
14053;DHT22;7101;51.600;7.310;2023-07-13T01:10:52;15.80;99.90
14053;DHT22;7101;51.600;7.310;2023-07-13T01:13:19;15.70;99.90
14053;DHT22;7101;51.600;7.310;2023-07-13T01:15:49;15.70;99.90
14053;DHT22;7101;51.600;7.310;2023-07-13T01:18:20;15.60;99.90
14053;DHT22;7101;51.600;7.310;2023-07-13T01:20:52;15.70;99.90
14053;DHT22;7101;51.600;7.310;2023-07-13T01:23:19;15.70;99.90
14053;DHT22;7101;51.600;7.310;2023-07-13T01:25:46;15.80;99.90
14053;DHT22;7101;51.600;7.310;2023-07-13T01:28:13;15.70;99.90
14053;DHT22;7101;51.600;7.310;2023-07-13T01:30:43;15.70;99.90
14053;DHT22;7101;51.600;7.310;2023-07-13T01:33:11;15.70;99.90
14053;DHT22;7101;51.600;7.310;2023-07-13T01:35:38;15.70;99.90
14053;DHT22;7101;51.600;7.310;2023-07-13T01:38:07;15.70;99.90
14053;DHT22;7101;51.600;7.310;2023-07-13T01:40:35;15.70;99.90
14053;DHT22;7101;51.600;7.310;2023-07-13T01:43:03;15.70;99.90
14053;DHT22;7101;51.600;7.310;2023-07-13T01:45:30;15.70;99.90
14053;DHT22;7101;51.600;7.310;2023-07-13T01:47:57;15.70;99.90
14053;DHT22;7101;51.600;7.310;2023-07-13T01:50:24;15.70;99.90
14053;DHT22;7101;51.600;7.310;2023-07-13T01:52:51;15.70;99.90
14053;DHT22;7101;51.600;7.310;2023-07-13T01:55:20;15.60;99.90
14053;DHT22;7101;51.600;7.310;2023-07-13T01:57:47;15.60;99.90
14053;DHT22;7101;51.600;7.310;2023-07-13T02:00:15;15.60;99.90
14053;DHT22;7101;51.600;7.310;2023-07-13T02:02:42;15.60;99.90
14053;DHT22;7101;51.600;7.310;2023-07-13T02:05:08;15.50;99.90
14053;DHT22;7101;51.600;7.310;2023-07-13T02:07:35;15.40;99.90
14053;DHT22;7101;51.600;7.310;2023-07-13T02:10:02;15.30;99.90
14053;DHT22;7101;51.600;7.310;2023-07-13T02:12:30;15.30;99.90
14053;DHT22;7101;51.600;7.310;2023-07-13T02:14:57;15.30;99.90
14053;DHT22;7101;51.600;7.310;2023-07-13T02:17:25;15.20;99.90
14053;DHT22;7101;51.600;7.310;2023-07-13T02:19:52;15.10;99.90
14053;DHT22;7101;51.600;7.310;2023-07-13T02:22:19;15.10;99.90
14053;DHT22;7101;51.600;7.310;2023-07-13T02:24:47;15.10;99.90
14053;DHT22;7101;51.600;7.310;2023-07-13T02:27:14;15.10;99.90
14053;DHT22;7101;51.600;7.310;2023-07-13T02:29:42;15.10;99.90
14053;DHT22;7101;51.600;7.310;2023-07-13T02:32:09;15.20;99.90
14053;DHT22;7101;51.600;7.310;2023-07-13T02:34:36;15.20;99.90
14053;DHT22;7101;51.600;7.310;2023-07-13T02:37:03;15.20;99.90
14053;DHT22;7101;51.600;7.310;2023-07-13T02:39:30;15.20;99.90
14053;DHT22;7101;51.600;7.310;2023-07-13T02:41:58;15.20;99.90
14053;DHT22;7101;51.600;7.310;2023-07-13T02:44:25;15.20;99.90
14053;DHT22;7101;51.600;7.310;2023-07-13T02:46:54;15.10;99.90
14053;DHT22;7101;51.600;7.310;2023-07-13T02:49:20;15.10;99.90
14053;DHT22;7101;51.600;7.310;2023-07-13T02:51:47;15.10;99.90
14053;DHT22;7101;51.600;7.310;2023-07-13T02:54:14;15.10;99.90
14053;DHT22;7101;51.600;7.310;2023-07-13T02:56:41;15.10;99.90
14053;DHT22;7101;51.600;7.310;2023-07-13T02:59:09;15.10;99.90
14053;DHT22;7101;51.600;7.310;2023-07-13T03:01:36;15.10;99.90
14053;DHT22;7101;51.600;7.310;2023-07-13T03:04:04;15.10;99.90
14053;DHT22;7101;51.600;7.310;2023-07-13T03:06:32;15.20;99.90
14053;DHT22;7101;51.600;7.310;2023-07-13T03:08:59;15.10;99.90
14053;DHT22;7101;51.600;7.310;2023-07-13T03:11:26;15.10;99.90
14053;DHT22;7101;51.600;7.310;2023-07-13T03:13:53;15.10;99.90
14053;DHT22;7101;51.600;7.310;2023-07-13T03:16:20;15.10;99.90
14053;DHT22;7101;51.600;7.310;2023-07-13T03:18:47;15.10;99.90
14053;DHT22;7101;51.600;7.310;2023-07-13T03:21:16;15.20;99.90
14053;DHT22;7101;51.600;7.310;2023-07-13T03:23:43;15.20;99.90
14053;DHT22;7101;51.600;7.310;2023-07-13T03:26:12;15.10;99.90
14053;DHT22;7101;51.600;7.310;2023-07-13T03:28:40;15.10;99.90
14053;DHT22;7101;51.600;7.310;2023-07-13T03:31:09;15.10;99.90
14053;DHT22;7101;51.600;7.310;2023-07-13T03:33:37;15.10;99.90
14053;DHT22;7101;51.600;7.310;2023-07-13T03:36:05;15.10;99.90
14053;DHT22;7101;51.600;7.310;2023-07-13T03:38:33;15.10;99.90
14053;DHT22;7101;51.600;7.310;2023-07-13T03:41:00;15.10;99.90
14053;DHT22;7101;51.600;7.310;2023-07-13T03:43:27;15.20;99.90
14053;DHT22;7101;51.600;7.310;2023-07-13T03:45:54;15.20;99.90
14053;DHT22;7101;51.600;7.310;2023-07-13T03:48:21;15.30;99.90
14053;DHT22;7101;51.600;7.310;2023-07-13T03:50:48;15.40;99.90
14053;DHT22;7101;51.600;7.310;2023-07-13T03:53:15;15.40;99.90
14053;DHT22;7101;51.600;7.310;2023-07-13T03:55:43;15.40;99.90
14053;DHT22;7101;51.600;7.310;2023-07-13T03:58:26;15.50;99.90
14053;DHT22;7101;51.600;7.310;2023-07-13T04:00:53;15.50;99.90
14053;DHT22;7101;51.600;7.310;2023-07-13T04:03:21;15.50;99.90
14053;DHT22;7101;51.600;7.310;2023-07-13T04:05:48;15.60;99.90
14053;DHT22;7101;51.600;7.310;2023-07-13T04:08:15;15.70;99.90
14053;DHT22;7101;51.600;7.310;2023-07-13T04:10:43;15.80;99.90
14053;DHT22;7101;51.600;7.310;2023-07-13T04:13:10;15.80;99.90
14053;DHT22;7101;51.600;7.310;2023-07-13T04:15:39;15.90;99.90
14053;DHT22;7101;51.600;7.310;2023-07-13T04:18:06;16.10;99.90
14053;DHT22;7101;51.600;7.310;2023-07-13T04:20:33;16.70;99.90
14053;DHT22;7101;51.600;7.310;2023-07-13T04:23:00;17.50;99.90
14053;DHT22;7101;51.600;7.310;2023-07-13T04:25:27;18.20;99.90
14053;DHT22;7101;51.600;7.310;2023-07-13T04:27:58;18.80;99.90
14053;DHT22;7101;51.600;7.310;2023-07-13T04:30:26;19.40;99.90
14053;DHT22;7101;51.600;7.310;2023-07-13T04:32:54;19.60;99.90
14053;DHT22;7101;51.600;7.310;2023-07-13T04:35:23;20.00;99.90
14053;DHT22;7101;51.600;7.310;2023-07-13T04:37:50;20.60;99.90
14053;DHT22;7101;51.600;7.310;2023-07-13T04:40:18;20.80;99.90
14053;DHT22;7101;51.600;7.310;2023-07-13T04:42:45;21.00;99.90
14053;DHT22;7101;51.600;7.310;2023-07-13T04:45:14;21.20;99.90
14053;DHT22;7101;51.600;7.310;2023-07-13T04:47:43;21.60;99.90
14053;DHT22;7101;51.600;7.310;2023-07-13T04:50:10;21.20;99.90
14053;DHT22;7101;51.600;7.310;2023-07-13T04:52:40;20.50;99.90
14053;DHT22;7101;51.600;7.310;2023-07-13T04:55:11;19.90;99.90
14053;DHT22;7101;51.600;7.310;2023-07-13T04:57:44;19.20;99.90
14053;DHT22;7101;51.600;7.310;2023-07-13T05:00:15;18.90;99.90
14053;DHT22;7101;51.600;7.310;2023-07-13T05:02:44;18.80;99.90
14053;DHT22;7101;51.600;7.310;2023-07-13T05:05:11;18.60;99.90
14053;DHT22;7101;51.600;7.310;2023-07-13T05:07:42;18.50;99.90
14053;DHT22;7101;51.600;7.310;2023-07-13T05:10:11;18.50;99.90
14053;DHT22;7101;51.600;7.310;2023-07-13T05:12:39;18.40;99.90
14053;DHT22;7101;51.600;7.310;2023-07-13T05:15:07;18.30;99.90
14053;DHT22;7101;51.600;7.310;2023-07-13T05:17:35;18.40;99.90
14053;DHT22;7101;51.600;7.310;2023-07-13T05:20:05;18.50;99.90
14053;DHT22;7101;51.600;7.310;2023-07-13T05:22:33;18.30;99.90
14053;DHT22;7101;51.600;7.310;2023-07-13T05:25:05;18.50;99.90
14053;DHT22;7101;51.600;7.310;2023-07-13T05:27:35;18.50;99.90
14053;DHT22;7101;51.600;7.310;2023-07-13T05:30:03;18.50;99.90
14053;DHT22;7101;51.600;7.310;2023-07-13T05:32:32;18.60;99.90
14053;DHT22;7101;51.600;7.310;2023-07-13T05:35:02;18.80;99.90
14053;DHT22;7101;51.600;7.310;2023-07-13T05:37:31;18.80;99.90
14053;DHT22;7101;51.600;7.310;2023-07-13T05:39:58;18.80;99.90
14053;DHT22;7101;51.600;7.310;2023-07-13T05:42:25;18.80;99.90
14053;DHT22;7101;51.600;7.310;2023-07-13T05:44:53;19.00;99.90
14053;DHT22;7101;51.600;7.310;2023-07-13T05:47:22;19.10;99.90
14053;DHT22;7101;51.600;7.310;2023-07-13T05:49:51;19.10;99.90
14053;DHT22;7101;51.600;7.310;2023-07-13T05:52:22;19.20;99.90
14053;DHT22;7101;51.600;7.310;2023-07-13T05:54:49;19.40;99.90
14053;DHT22;7101;51.600;7.310;2023-07-13T05:57:20;19.60;99.90
14053;DHT22;7101;51.600;7.310;2023-07-13T05:59:48;19.90;99.90
14053;DHT22;7101;51.600;7.310;2023-07-13T06:02:31;21.00;99.90
14053;DHT22;7101;51.600;7.310;2023-07-13T06:05:00;22.30;99.90
14053;DHT22;7101;51.600;7.310;2023-07-13T06:07:28;23.80;99.90
14053;DHT22;7101;51.600;7.310;2023-07-13T06:09:57;24.50;99.90
14053;DHT22;7101;51.600;7.310;2023-07-13T06:12:25;25.10;99.90
14053;DHT22;7101;51.600;7.310;2023-07-13T06:14:53;25.10;99.90
14053;DHT22;7101;51.600;7.310;2023-07-13T06:17:20;24.70;99.90
14053;DHT22;7101;51.600;7.310;2023-07-13T06:19:48;24.20;99.90
14053;DHT22;7101;51.600;7.310;2023-07-13T06:22:18;23.10;99.90
14053;DHT22;7101;51.600;7.310;2023-07-13T06:24:47;22.60;99.90
14053;DHT22;7101;51.600;7.310;2023-07-13T06:27:14;21.90;99.90
14053;DHT22;7101;51.600;7.310;2023-07-13T06:29:41;21.60;99.90
14053;DHT22;7101;51.600;7.310;2023-07-13T06:32:13;21.30;99.90
14053;DHT22;7101;51.600;7.310;2023-07-13T06:34:49;21.30;99.90
14053;DHT22;7101;51.600;7.310;2023-07-13T06:37:30;21.40;99.90
14053;DHT22;7101;51.600;7.310;2023-07-13T06:39:59;22.70;99.90
14053;DHT22;7101;51.600;7.310;2023-07-13T06:42:26;23.30;99.90
14053;DHT22;7101;51.600;7.310;2023-07-13T06:44:52;24.40;99.90
14053;DHT22;7101;51.600;7.310;2023-07-13T06:47:20;24.90;99.90
14053;DHT22;7101;51.600;7.310;2023-07-13T06:49:48;24.80;99.90
14053;DHT22;7101;51.600;7.310;2023-07-13T06:52:16;25.30;99.90
14053;DHT22;7101;51.600;7.310;2023-07-13T06:54:55;25.90;99.90
14053;DHT22;7101;51.600;7.310;2023-07-13T06:57:23;26.30;99.90
14053;DHT22;7101;51.600;7.310;2023-07-13T06:59:53;27.20;99.90
14053;DHT22;7101;51.600;7.310;2023-07-13T07:02:22;27.40;99.90
14053;DHT22;7101;51.600;7.310;2023-07-13T07:04:58;27.20;99.90
14053;DHT22;7101;51.600;7.310;2023-07-13T07:07:27;27.60;99.90
14053;DHT22;7101;51.600;7.310;2023-07-13T07:09:55;28.00;99.90
14053;DHT22;7101;51.600;7.310;2023-07-13T07:12:33;29.10;99.90
14053;DHT22;7101;51.600;7.310;2023-07-13T07:15:00;29.00;99.90
14053;DHT22;7101;51.600;7.310;2023-07-13T07:17:28;29.00;99.50
14053;DHT22;7101;51.600;7.310;2023-07-13T07:20:07;28.80;99.80
14053;DHT22;7101;51.600;7.310;2023-07-13T07:22:45;28.60;99.50
14053;DHT22;7101;51.600;7.310;2023-07-13T07:25:15;28.80;99.90
14053;DHT22;7101;51.600;7.310;2023-07-13T07:27:44;29.60;98.90
14053;DHT22;7101;51.600;7.310;2023-07-13T07:30:12;29.00;95.50
14053;DHT22;7101;51.600;7.310;2023-07-13T07:32:41;28.80;98.90
14053;DHT22;7101;51.600;7.310;2023-07-13T07:35:08;28.80;99.80
14053;DHT22;7101;51.600;7.310;2023-07-13T07:37:38;29.40;99.90
14053;DHT22;7101;51.600;7.310;2023-07-13T07:40:07;29.40;95.90
14053;DHT22;7101;51.600;7.310;2023-07-13T07:42:34;29.80;95.80
14053;DHT22;7101;51.600;7.310;2023-07-13T07:45:04;29.50;95.10
14053;DHT22;7101;51.600;7.310;2023-07-13T07:47:31;28.40;94.40
14053;DHT22;7101;51.600;7.310;2023-07-13T07:50:00;26.90;98.10
14053;DHT22;7101;51.600;7.310;2023-07-13T07:52:28;25.70;99.90
14053;DHT22;7101;51.600;7.310;2023-07-13T07:54:55;25.30;99.90
14053;DHT22;7101;51.600;7.310;2023-07-13T07:57:27;25.80;99.90
14053;DHT22;7101;51.600;7.310;2023-07-13T07:59:57;26.90;99.90
14053;DHT22;7101;51.600;7.310;2023-07-13T08:02:25;27.60;99.90
14053;DHT22;7101;51.600;7.310;2023-07-13T08:04:52;28.00;99.90
14053;DHT22;7101;51.600;7.310;2023-07-13T08:07:21;28.70;99.90
14053;DHT22;7101;51.600;7.310;2023-07-13T08:09:52;29.50;98.60
14053;DHT22;7101;51.600;7.310;2023-07-13T08:12:19;30.20;93.70
14053;DHT22;7101;51.600;7.310;2023-07-13T08:14:52;29.90;94.80
14053;DHT22;7101;51.600;7.310;2023-07-13T08:17:24;30.00;97.50
14053;DHT22;7101;51.600;7.310;2023-07-13T08:19:55;30.20;94.10
14053;DHT22;7101;51.600;7.310;2023-07-13T08:22:23;30.50;96.30
14053;DHT22;7101;51.600;7.310;2023-07-13T08:24:50;31.00;92.20
14053;DHT22;7101;51.600;7.310;2023-07-13T08:27:21;31.60;90.90
14053;DHT22;7101;51.600;7.310;2023-07-13T08:29:49;31.60;91.10
14053;DHT22;7101;51.600;7.310;2023-07-13T08:32:23;31.80;88.70
14053;DHT22;7101;51.600;7.310;2023-07-13T08:34:51;31.80;82.20
14053;DHT22;7101;51.600;7.310;2023-07-13T08:37:19;30.60;83.40
14053;DHT22;7101;51.600;7.310;2023-07-13T08:39:46;30.30;90.80
14053;DHT22;7101;51.600;7.310;2023-07-13T08:42:23;30.10;87.40
14053;DHT22;7101;51.600;7.310;2023-07-13T08:45:04;29.30;84.00
14053;DHT22;7101;51.600;7.310;2023-07-13T08:47:38;28.20;90.80
14053;DHT22;7101;51.600;7.310;2023-07-13T08:50:11;29.00;94.00
14053;DHT22;7101;51.600;7.310;2023-07-13T08:52:41;29.60;93.70
14053;DHT22;7101;51.600;7.310;2023-07-13T08:55:13;30.40;91.70
14053;DHT22;7101;51.600;7.310;2023-07-13T08:57:42;30.80;87.30
14053;DHT22;7101;51.600;7.310;2023-07-13T09:00:10;31.00;85.20
14053;DHT22;7101;51.600;7.310;2023-07-13T09:02:42;31.10;84.50
14053;DHT22;7101;51.600;7.310;2023-07-13T09:05:22;31.00;83.90
14053;DHT22;7101;51.600;7.310;2023-07-13T09:08:03;31.00;87.40
14053;DHT22;7101;51.600;7.310;2023-07-13T09:10:34;30.80;81.70
14053;DHT22;7101;51.600;7.310;2023-07-13T09:13:19;30.50;84.30
14053;DHT22;7101;51.600;7.310;2023-07-13T09:15:50;30.40;82.10
14053;DHT22;7101;51.600;7.310;2023-07-13T09:18:23;30.30;83.60
14053;DHT22;7101;51.600;7.310;2023-07-13T09:20:58;29.80;79.80
14053;DHT22;7101;51.600;7.310;2023-07-13T09:23:29;28.90;87.00
14053;DHT22;7101;51.600;7.310;2023-07-13T09:26:02;28.30;87.40
14053;DHT22;7101;51.600;7.310;2023-07-13T09:28:38;27.30;90.80
14053;DHT22;7101;51.600;7.310;2023-07-13T09:31:09;26.70;91.40
14053;DHT22;7101;51.600;7.310;2023-07-13T09:33:40;27.00;95.00
14053;DHT22;7101;51.600;7.310;2023-07-13T09:36:26;27.40;92.20
14053;DHT22;7101;51.600;7.310;2023-07-13T09:39:05;27.30;94.90
14053;DHT22;7101;51.600;7.310;2023-07-13T09:41:43;27.70;94.20
14053;DHT22;7101;51.600;7.310;2023-07-13T09:44:15;27.60;92.80
14053;DHT22;7101;51.600;7.310;2023-07-13T09:46:52;27.80;97.00
14053;DHT22;7101;51.600;7.310;2023-07-13T09:49:24;27.70;92.20
14053;DHT22;7101;51.600;7.310;2023-07-13T09:52:03;27.60;95.70
14053;DHT22;7101;51.600;7.310;2023-07-13T09:54:34;28.00;93.80
14053;DHT22;7101;51.600;7.310;2023-07-13T09:57:03;28.00;93.30
14053;DHT22;7101;51.600;7.310;2023-07-13T09:59:32;28.30;94.30
14053;DHT22;7101;51.600;7.310;2023-07-13T10:02:00;28.40;93.10
14053;DHT22;7101;51.600;7.310;2023-07-13T10:04:30;27.80;93.70
14053;DHT22;7101;51.600;7.310;2023-07-13T10:07:07;27.40;95.60
14053;DHT22;7101;51.600;7.310;2023-07-13T10:09:35;27.00;95.20
14053;DHT22;7101;51.600;7.310;2023-07-13T10:12:04;26.90;97.20
14053;DHT22;7101;51.600;7.310;2023-07-13T10:14:42;26.90;98.60
14053;DHT22;7101;51.600;7.310;2023-07-13T10:17:12;27.30;99.90
14053;DHT22;7101;51.600;7.310;2023-07-13T10:19:41;27.00;95.10
14053;DHT22;7101;51.600;7.310;2023-07-13T10:22:19;25.70;95.80
14053;DHT22;7101;51.600;7.310;2023-07-13T10:24:49;25.60;99.90
14053;DHT22;7101;51.600;7.310;2023-07-13T10:27:19;26.10;99.90
14053;DHT22;7101;51.600;7.310;2023-07-13T10:29:54;26.30;99.90
14053;DHT22;7101;51.600;7.310;2023-07-13T10:32:25;26.30;99.10
14053;DHT22;7101;51.600;7.310;2023-07-13T10:34:53;26.50;97.80
14053;DHT22;7101;51.600;7.310;2023-07-13T10:37:43;26.60;96.80
14053;DHT22;7101;51.600;7.310;2023-07-13T10:40:14;26.40;97.50
14053;DHT22;7101;51.600;7.310;2023-07-13T10:42:46;26.10;99.90
14053;DHT22;7101;51.600;7.310;2023-07-13T10:45:20;25.80;98.20
14053;DHT22;7101;51.600;7.310;2023-07-13T10:47:48;25.40;99.90
14053;DHT22;7101;51.600;7.310;2023-07-13T10:50:20;25.10;99.90
14053;DHT22;7101;51.600;7.310;2023-07-13T10:52:50;24.60;99.90
14053;DHT22;7101;51.600;7.310;2023-07-13T10:55:37;24.40;99.90
14053;DHT22;7101;51.600;7.310;2023-07-13T10:58:13;24.70;99.90
14053;DHT22;7101;51.600;7.310;2023-07-13T11:00:48;25.10;99.90
14053;DHT22;7101;51.600;7.310;2023-07-13T11:03:21;25.10;99.90
14053;DHT22;7101;51.600;7.310;2023-07-13T11:05:51;24.90;99.90
14053;DHT22;7101;51.600;7.310;2023-07-13T11:08:33;24.60;99.90
14053;DHT22;7101;51.600;7.310;2023-07-13T11:11:02;24.50;99.90
14053;DHT22;7101;51.600;7.310;2023-07-13T11:14:00;24.90;99.90
14053;DHT22;7101;51.600;7.310;2023-07-13T11:16:42;25.00;99.90
14053;DHT22;7101;51.600;7.310;2023-07-13T11:19:29;25.20;99.90
14053;DHT22;7101;51.600;7.310;2023-07-13T11:22:13;25.50;99.90
14053;DHT22;7101;51.600;7.310;2023-07-13T11:24:58;25.50;99.90
14053;DHT22;7101;51.600;7.310;2023-07-13T11:27:41;25.70;99.90
14053;DHT22;7101;51.600;7.310;2023-07-13T11:30:31;26.20;99.90
14053;DHT22;7101;51.600;7.310;2023-07-13T11:33:13;26.10;99.90
14053;DHT22;7101;51.600;7.310;2023-07-13T11:35:48;26.00;99.90
14053;DHT22;7101;51.600;7.310;2023-07-13T11:38:18;25.80;99.90
14053;DHT22;7101;51.600;7.310;2023-07-13T11:40:48;25.60;99.90
14053;DHT22;7101;51.600;7.310;2023-07-13T11:43:17;25.40;99.90
14053;DHT22;7101;51.600;7.310;2023-07-13T11:45:45;25.40;99.90
14053;DHT22;7101;51.600;7.310;2023-07-13T11:48:19;25.20;99.90
14053;DHT22;7101;51.600;7.310;2023-07-13T11:50:54;25.30;99.90
14053;DHT22;7101;51.600;7.310;2023-07-13T11:53:23;25.60;99.90
14053;DHT22;7101;51.600;7.310;2023-07-13T11:55:53;25.90;99.90
14053;DHT22;7101;51.600;7.310;2023-07-13T11:58:24;26.20;99.90
14053;DHT22;7101;51.600;7.310;2023-07-13T12:00:55;26.30;99.90
14053;DHT22;7101;51.600;7.310;2023-07-13T12:03:25;26.00;99.90
14053;DHT22;7101;51.600;7.310;2023-07-13T12:05:56;26.00;99.90
14053;DHT22;7101;51.600;7.310;2023-07-13T12:08:28;26.00;98.60
14053;DHT22;7101;51.600;7.310;2023-07-13T12:11:05;26.10;99.00
14053;DHT22;7101;51.600;7.310;2023-07-13T12:13:45;26.20;99.90
14053;DHT22;7101;51.600;7.310;2023-07-13T12:16:23;26.80;99.60
14053;DHT22;7101;51.600;7.310;2023-07-13T12:18:53;27.20;96.70
14053;DHT22;7101;51.600;7.310;2023-07-13T12:21:26;27.10;94.50
14053;DHT22;7101;51.600;7.310;2023-07-13T12:23:55;26.90;96.20
14053;DHT22;7101;51.600;7.310;2023-07-13T12:26:24;26.90;94.10
14053;DHT22;7101;51.600;7.310;2023-07-13T12:28:53;26.90;94.10
14053;DHT22;7101;51.600;7.310;2023-07-13T12:31:35;26.70;94.40
14053;DHT22;7101;51.600;7.310;2023-07-13T12:34:06;26.90;94.40
14053;DHT22;7101;51.600;7.310;2023-07-13T12:36:36;26.70;91.40
14053;DHT22;7101;51.600;7.310;2023-07-13T12:39:13;26.60;92.60
14053;DHT22;7101;51.600;7.310;2023-07-13T12:41:45;26.00;91.40
14053;DHT22;7101;51.600;7.310;2023-07-13T12:44:14;25.50;93.90
14053;DHT22;7101;51.600;7.310;2023-07-13T12:46:58;25.50;96.00
14053;DHT22;7101;51.600;7.310;2023-07-13T12:49:31;26.20;96.20
14053;DHT22;7101;51.600;7.310;2023-07-13T12:52:03;26.20;91.70
14053;DHT22;7101;51.600;7.310;2023-07-13T12:54:31;25.70;93.40
14053;DHT22;7101;51.600;7.310;2023-07-13T12:57:00;25.40;94.30
14053;DHT22;7101;51.600;7.310;2023-07-13T12:59:32;25.80;93.60
14053;DHT22;7101;51.600;7.310;2023-07-13T13:02:21;26.00;92.30
14053;DHT22;7101;51.600;7.310;2023-07-13T13:04:49;26.10;91.30
14053;DHT22;7101;51.600;7.310;2023-07-13T13:07:16;26.10;92.40
14053;DHT22;7101;51.600;7.310;2023-07-13T13:09:52;26.10;92.00
14053;DHT22;7101;51.600;7.310;2023-07-13T13:12:22;25.80;91.90
14053;DHT22;7101;51.600;7.310;2023-07-13T13:14:53;25.50;93.20
14053;DHT22;7101;51.600;7.310;2023-07-13T13:17:21;25.30;92.50
14053;DHT22;7101;51.600;7.310;2023-07-13T13:19:54;25.20;92.20
14053;DHT22;7101;51.600;7.310;2023-07-13T13:22:22;24.80;94.10
14053;DHT22;7101;51.600;7.310;2023-07-13T13:24:52;24.50;93.50
14053;DHT22;7101;51.600;7.310;2023-07-13T13:27:22;22.90;99.90
14053;DHT22;7101;51.600;7.310;2023-07-13T13:29:50;21.20;99.90
14053;DHT22;7101;51.600;7.310;2023-07-13T13:32:18;20.00;99.90
14053;DHT22;7101;51.600;7.310;2023-07-13T13:34:45;19.00;99.90
14053;DHT22;7101;51.600;7.310;2023-07-13T13:37:17;18.60;99.90
14053;DHT22;7101;51.600;7.310;2023-07-13T13:39:45;18.30;99.90
14053;DHT22;7101;51.600;7.310;2023-07-13T13:42:13;17.80;99.90
14053;DHT22;7101;51.600;7.310;2023-07-13T13:44:46;17.00;99.90
14053;DHT22;7101;51.600;7.310;2023-07-13T13:47:28;16.60;99.90
14053;DHT22;7101;51.600;7.310;2023-07-13T13:50:05;16.40;99.90
14053;DHT22;7101;51.600;7.310;2023-07-13T13:52:40;16.20;99.90
14053;DHT22;7101;51.600;7.310;2023-07-13T13:55:14;16.10;99.90
14053;DHT22;7101;51.600;7.310;2023-07-13T13:57:42;15.90;99.90
14053;DHT22;7101;51.600;7.310;2023-07-13T14:00:13;16.10;99.90
14053;DHT22;7101;51.600;7.310;2023-07-13T14:02:46;16.20;99.90
14053;DHT22;7101;51.600;7.310;2023-07-13T14:05:21;16.30;99.90
14053;DHT22;7101;51.600;7.310;2023-07-13T14:08:09;16.50;99.90
14053;DHT22;7101;51.600;7.310;2023-07-13T14:10:39;16.70;99.90
14053;DHT22;7101;51.600;7.310;2023-07-13T14:13:16;16.90;99.90
14053;DHT22;7101;51.600;7.310;2023-07-13T14:15:48;17.10;99.90
14053;DHT22;7101;51.600;7.310;2023-07-13T14:18:16;17.50;99.90
14053;DHT22;7101;51.600;7.310;2023-07-13T14:20:46;18.00;99.90
14053;DHT22;7101;51.600;7.310;2023-07-13T14:23:14;18.20;99.90
14053;DHT22;7101;51.600;7.310;2023-07-13T14:25:41;18.50;99.90
14053;DHT22;7101;51.600;7.310;2023-07-13T14:28:19;19.00;99.90
14053;DHT22;7101;51.600;7.310;2023-07-13T14:30:48;19.00;99.90
14053;DHT22;7101;51.600;7.310;2023-07-13T14:33:16;19.30;99.90
14053;DHT22;7101;51.600;7.310;2023-07-13T14:35:43;19.50;99.90
14053;DHT22;7101;51.600;7.310;2023-07-13T14:38:13;19.50;99.90
14053;DHT22;7101;51.600;7.310;2023-07-13T14:40:42;19.50;99.90
14053;DHT22;7101;51.600;7.310;2023-07-13T14:43:10;19.60;99.90
14053;DHT22;7101;51.600;7.310;2023-07-13T14:45:40;19.50;99.90
14053;DHT22;7101;51.600;7.310;2023-07-13T14:48:17;19.40;99.90
14053;DHT22;7101;51.600;7.310;2023-07-13T14:50:45;19.30;99.90
14053;DHT22;7101;51.600;7.310;2023-07-13T14:53:13;19.30;99.90
14053;DHT22;7101;51.600;7.310;2023-07-13T14:55:41;19.20;99.90
14053;DHT22;7101;51.600;7.310;2023-07-13T14:58:09;19.20;99.90
14053;DHT22;7101;51.600;7.310;2023-07-13T15:00:36;19.20;99.90
14053;DHT22;7101;51.600;7.310;2023-07-13T15:03:04;19.40;99.90
14053;DHT22;7101;51.600;7.310;2023-07-13T15:05:34;19.80;99.90
14053;DHT22;7101;51.600;7.310;2023-07-13T15:08:02;20.10;99.90
14053;DHT22;7101;51.600;7.310;2023-07-13T15:10:32;20.40;99.90
14053;DHT22;7101;51.600;7.310;2023-07-13T15:13:04;20.70;99.90
14053;DHT22;7101;51.600;7.310;2023-07-13T15:15:40;20.70;99.90
14053;DHT22;7101;51.600;7.310;2023-07-13T15:18:10;20.80;99.90
14053;DHT22;7101;51.600;7.310;2023-07-13T15:20:39;21.20;99.90
14053;DHT22;7101;51.600;7.310;2023-07-13T15:23:06;21.40;99.90
14053;DHT22;7101;51.600;7.310;2023-07-13T15:25:36;21.80;99.90
14053;DHT22;7101;51.600;7.310;2023-07-13T15:28:03;22.40;99.90
14053;DHT22;7101;51.600;7.310;2023-07-13T15:30:33;22.80;99.90
14053;DHT22;7101;51.600;7.310;2023-07-13T15:33:11;23.10;99.90
14053;DHT22;7101;51.600;7.310;2023-07-13T15:35:46;23.20;99.90
14053;DHT22;7101;51.600;7.310;2023-07-13T15:38:16;23.30;99.90
14053;DHT22;7101;51.600;7.310;2023-07-13T15:40:44;23.10;99.90
14053;DHT22;7101;51.600;7.310;2023-07-13T15:43:12;22.70;99.90
14053;DHT22;7101;51.600;7.310;2023-07-13T15:45:39;22.00;99.90
14053;DHT22;7101;51.600;7.310;2023-07-13T15:48:16;21.70;99.90
14053;DHT22;7101;51.600;7.310;2023-07-13T15:50:46;21.80;99.90
14053;DHT22;7101;51.600;7.310;2023-07-13T15:53:15;21.90;99.90
14053;DHT22;7101;51.600;7.310;2023-07-13T15:55:45;21.90;99.90
14053;DHT22;7101;51.600;7.310;2023-07-13T15:58:13;22.10;99.90
14053;DHT22;7101;51.600;7.310;2023-07-13T16:00:48;22.10;99.90
14053;DHT22;7101;51.600;7.310;2023-07-13T16:03:17;22.00;99.90
14053;DHT22;7101;51.600;7.310;2023-07-13T16:05:44;21.60;99.90